createdAt,value
2022-11-13T00:01:19.609Z,82.10
2022-11-13T00:04:05.251Z,82.17
2022-11-13T00:06:54.792Z,82.23
2022-11-13T00:09:43.190Z,82.22
2022-11-13T00:12:29.316Z,82.26
2022-11-13T00:15:14.763Z,82.02
2022-11-13T00:18:03.276Z,81.91
2022-11-13T00:20:48.805Z,82.10
2022-11-13T00:23:36.925Z,82.33
2022-11-13T00:26:23.513Z,82.08
2022-11-13T00:29:08.650Z,81.90
2022-11-13T00:31:53.817Z,82.15
2022-11-13T00:34:47.758Z,82.13
2022-11-13T00:37:33.707Z,82.05
2022-11-13T00:40:18.618Z,82.13
2022-11-13T00:43:03.573Z,81.81
2022-11-13T00:45:48.596Z,81.98
2022-11-13T00:48:34.122Z,82.04
2022-11-13T00:51:19.926Z,82.05
2022-11-13T00:54:05.469Z,81.92
2022-11-13T00:56:55.928Z,81.84
2022-11-13T00:59:41.292Z,81.95
2022-11-13T01:02:27.126Z,81.85
2022-11-13T01:05:12.730Z,82.03
2022-11-13T01:07:58.528Z,81.95
2022-11-13T01:10:48.817Z,82.11
2022-11-13T01:13:39.366Z,81.95
2022-11-13T01:16:25.559Z,81.87
2022-11-13T01:19:11.066Z,82.23
2022-11-13T01:21:56.479Z,82.12
2022-11-13T01:24:41.829Z,82.08
2022-11-13T01:27:27.286Z,81.88
2022-11-13T01:30:12.651Z,82.25
2022-11-13T01:32:57.933Z,82.13
2022-11-13T01:35:42.908Z,81.97
2022-11-13T01:38:34.452Z,82.14
2022-11-13T01:41:25.240Z,81.75
2022-11-13T01:44:14.320Z,81.97
2022-11-13T01:46:59.875Z,82.01
2022-11-13T01:49:45.439Z,81.98
2022-11-13T01:52:31.865Z,81.91
2022-11-13T01:55:17.525Z,82.32
2022-11-13T01:58:03.383Z,82.12
2022-11-13T02:00:48.596Z,82.25
2022-11-13T02:03:33.854Z,81.98
2022-11-13T02:06:28.126Z,81.99
2022-11-13T02:09:17.820Z,81.87
2022-11-13T02:12:04.007Z,81.95
2022-11-13T02:14:52.907Z,82.00
2022-11-13T02:17:51.527Z,81.98
2022-11-13T02:21:02.706Z,82.09
2022-11-13T02:23:51.675Z,81.79
2022-11-13T02:26:46.106Z,81.88
2022-11-13T02:29:32.218Z,81.98
2022-11-13T02:32:17.289Z,82.10
2022-11-13T02:35:02.859Z,81.70
2022-11-13T02:37:50.897Z,81.69
2022-11-13T02:40:39.382Z,81.83
2022-11-13T02:43:25.044Z,81.72
2022-11-13T02:46:12.695Z,81.75
2022-11-13T02:49:02.447Z,81.72
2022-11-13T02:51:50.075Z,81.42
2022-11-13T02:54:38.777Z,81.48
2022-11-13T02:57:24.432Z,81.52
2022-11-13T03:00:23.457Z,81.61
2022-11-13T03:03:12.574Z,81.58
2022-11-13T03:05:57.956Z,81.61
2022-11-13T03:08:43.641Z,81.62
2022-11-13T03:11:37.759Z,81.24
2022-11-13T03:14:23.570Z,81.21
2022-11-13T03:17:25.941Z,81.54
2022-11-13T03:20:11.314Z,81.47
2022-11-13T03:23:01.053Z,81.38
2022-11-13T03:25:52.648Z,81.17
2022-11-13T03:28:40.908Z,81.14
2022-11-13T03:31:29.350Z,81.20
2022-11-13T03:34:14.718Z,80.92
2022-11-13T03:37:03.333Z,80.88
2022-11-13T03:39:48.400Z,80.85
2022-11-13T03:42:41.773Z,80.94
2022-11-13T03:45:27.076Z,81.02
2022-11-13T03:48:14.031Z,80.93
2022-11-13T03:50:59.784Z,80.91
2022-11-13T03:53:45.096Z,80.89
2022-11-13T03:56:30.163Z,81.27
2022-11-13T03:59:15.588Z,80.72
2022-11-13T04:02:00.764Z,80.97
2022-11-13T04:04:46.528Z,80.81
2022-11-13T04:07:32.059Z,81.06
2022-11-13T04:10:20.590Z,80.90
2022-11-13T04:13:08.637Z,80.79
2022-11-13T04:15:54.190Z,80.82
2022-11-13T04:18:40.358Z,80.97
2022-11-13T04:21:26.052Z,80.82
2022-11-13T04:24:11.609Z,80.85
2022-11-13T04:26:57.155Z,80.77
2022-11-13T04:29:44.216Z,80.83
2022-11-13T04:32:30.328Z,80.34
2022-11-13T04:35:15.816Z,80.61
2022-11-13T04:38:16.609Z,80.64
2022-11-13T04:41:20.915Z,80.66
2022-11-13T04:44:09.699Z,80.66
2022-11-13T04:47:02.863Z,80.54
2022-11-13T04:49:50.916Z,80.52
2022-11-13T04:52:36.241Z,80.48
2022-11-13T04:55:21.262Z,80.44
2022-11-13T04:58:06.179Z,80.63
2022-11-13T05:00:51.868Z,80.33
2022-11-13T05:03:37.606Z,80.62
2022-11-13T05:06:23.086Z,80.65
2022-11-13T05:09:08.700Z,80.65
2022-11-13T05:11:56.441Z,80.41
2022-11-13T05:14:42.073Z,80.69
2022-11-13T05:17:27.862Z,80.34
2022-11-13T05:20:26.740Z,80.41
2022-11-13T05:23:13.310Z,80.40
2022-11-13T05:26:04.688Z,80.86
2022-11-13T05:28:56.593Z,80.77
2022-11-13T05:31:42.158Z,80.68
2022-11-13T05:34:27.269Z,80.63
2022-11-13T05:37:13.172Z,80.75
2022-11-13T05:40:03.195Z,80.72
2022-11-13T05:42:48.683Z,80.82
2022-11-13T05:45:34.288Z,80.67
2022-11-13T05:48:21.761Z,80.92
2022-11-13T05:51:08.256Z,80.85
2022-11-13T05:53:55.639Z,80.54
2022-11-13T05:56:41.154Z,80.48
2022-11-13T05:59:26.468Z,80.75
2022-11-13T06:02:18.401Z,80.63
2022-11-13T06:05:03.970Z,81.05
2022-11-13T06:07:51.701Z,80.83
2022-11-13T06:10:37.292Z,81.16
2022-11-13T06:13:22.953Z,81.11
2022-11-13T06:16:10.373Z,81.18
2022-11-13T06:18:59.511Z,81.68
2022-11-13T06:21:51.172Z,81.44
2022-11-13T06:24:42.414Z,82.22
2022-11-13T06:27:31.654Z,81.92
2022-11-13T06:30:17.153Z,82.22
2022-11-13T06:33:02.539Z,82.05
2022-11-13T06:35:47.941Z,82.45
2022-11-13T06:38:36.445Z,81.94
2022-11-13T06:41:26.357Z,81.97
2022-11-13T06:44:12.327Z,81.57
2022-11-13T06:47:00.637Z,81.62
2022-11-13T06:49:45.829Z,81.48
2022-11-13T06:52:30.990Z,81.73
2022-11-13T06:58:46.453Z,81.83
2022-11-13T07:01:31.629Z,81.66
2022-11-13T07:04:17.158Z,81.72
2022-11-13T07:07:05.427Z,81.82
2022-11-13T07:09:50.731Z,82.00
2022-11-13T07:12:36.255Z,82.21
2022-11-13T07:15:21.430Z,82.40
2022-11-13T07:18:06.875Z,82.34
2022-11-13T07:20:51.978Z,82.36
2022-11-13T07:23:43.071Z,82.50
2022-11-13T07:26:31.792Z,82.77
2022-11-13T07:32:49.790Z,82.97
2022-11-13T07:35:39.363Z,82.90
2022-11-13T07:39:00.361Z,83.35
2022-11-13T07:41:59.841Z,83.18
2022-11-13T07:44:55.610Z,83.55
2022-11-13T07:51:13.274Z,83.61
2022-11-13T07:54:01.358Z,83.39
2022-11-13T07:56:47.554Z,83.62
2022-11-13T07:59:34.905Z,83.87
2022-11-13T08:06:31.056Z,83.97
2022-11-13T08:12:57.840Z,84.11
2022-11-13T08:16:22.408Z,84.13
2022-11-13T08:19:12.550Z,83.78
2022-11-13T08:25:42.773Z,84.00
2022-11-13T08:29:19.674Z,83.94
2022-11-13T08:36:04.163Z,83.85
2022-11-13T08:50:31.139Z,84.36
2022-11-13T08:53:19.161Z,84.21
2022-11-13T08:56:07.046Z,84.30
2022-11-13T08:58:53.251Z,84.57
2022-11-13T09:01:41.075Z,84.50
2022-11-13T09:04:32.803Z,84.36
2022-11-13T09:07:27.151Z,84.54
2022-11-13T09:10:18.348Z,84.79
2022-11-13T09:13:11.984Z,84.72
2022-11-13T09:16:18.230Z,84.63
2022-11-13T09:19:39.108Z,84.93
2022-11-13T09:24:03.429Z,84.99
2022-11-13T09:26:48.144Z,85.28
2022-11-13T09:29:34.212Z,85.26
2022-11-13T09:32:23.195Z,85.39
2022-11-13T09:35:09.309Z,85.39
2022-11-13T09:37:56.601Z,85.25
2022-11-13T09:40:44.873Z,85.26
2022-11-13T09:43:49.803Z,84.97
2022-11-13T09:46:38.364Z,84.87
2022-11-13T09:49:27.525Z,84.85
2022-11-13T09:52:14.092Z,84.34
2022-11-13T09:54:59.209Z,84.29
2022-11-13T09:57:56.185Z,84.10
2022-11-13T10:00:41.137Z,84.31
2022-11-13T10:04:00.733Z,83.79
2022-11-13T10:06:40.961Z,83.67
2022-11-13T10:09:47.103Z,83.62
2022-11-13T10:12:32.311Z,83.24
2022-11-13T10:15:17.399Z,83.30
2022-11-13T10:18:04.869Z,83.30
2022-11-13T10:20:51.007Z,82.94
2022-11-13T10:23:37.916Z,83.20
2022-11-13T10:26:24.788Z,83.12
2022-11-13T10:29:14.251Z,82.68
2022-11-13T10:32:00.155Z,82.39
2022-11-13T10:34:50.349Z,82.19
2022-11-13T10:41:12.393Z,81.53
2022-11-13T10:44:16.170Z,81.58
2022-11-13T10:47:48.936Z,81.32
2022-11-13T10:50:30.432Z,80.71
2022-11-13T10:53:19.169Z,80.51
2022-11-13T10:56:21.237Z,80.71
2022-11-13T10:59:16.887Z,80.43
2022-11-13T11:02:09.249Z,79.93
2022-11-13T11:05:06.248Z,80.13
2022-11-13T11:07:52.054Z,80.25
2022-11-13T11:10:57.762Z,79.95
2022-11-13T11:13:43.192Z,79.54
2022-11-13T11:16:28.299Z,79.64
2022-11-13T11:19:13.517Z,79.60
2022-11-13T11:22:02.296Z,79.66
2022-11-13T11:24:51.747Z,79.49
2022-11-13T11:27:39.734Z,79.25
2022-11-13T11:30:26.678Z,79.03
2022-11-13T11:33:32.657Z,79.27
2022-11-13T11:44:02.375Z,78.14
2022-11-13T11:46:51.603Z,78.03
2022-11-13T11:49:40.297Z,77.92
2022-11-13T11:52:45.114Z,77.74
2022-11-13T11:55:49.295Z,77.68
2022-11-13T11:58:40.222Z,77.50
2022-11-13T12:01:34.743Z,77.27
2022-11-13T12:04:24.786Z,77.08
2022-11-13T12:07:13.317Z,76.98
2022-11-13T12:10:17.757Z,76.53
2022-11-13T12:13:09.469Z,76.91
2022-11-13T12:16:01.035Z,76.85
2022-11-13T12:18:46.809Z,76.79
2022-11-13T12:21:40.652Z,76.50
2022-11-13T12:24:37.227Z,76.74
2022-11-13T12:27:26.120Z,76.67
2022-11-13T12:30:16.309Z,76.20
2022-11-13T12:33:14.181Z,76.45
2022-11-13T12:35:59.624Z,76.23
2022-11-13T12:38:54.962Z,76.35
2022-11-13T12:41:50.519Z,76.07
2022-11-13T12:44:43.086Z,76.07
2022-11-13T12:47:28.406Z,76.11
2022-11-13T12:50:22.117Z,75.67
2022-11-13T12:53:08.796Z,75.78
2022-11-13T12:56:00.905Z,75.05
2022-11-13T12:59:15.453Z,74.97
2022-11-13T13:02:07.937Z,74.42
2022-11-13T13:05:12.049Z,73.93
2022-11-13T13:08:15.829Z,73.43
2022-11-13T13:11:13.146Z,73.37
2022-11-13T13:14:06.260Z,73.17
2022-11-13T13:16:51.669Z,72.84
2022-11-13T13:19:37.174Z,72.67
2022-11-13T13:22:27.213Z,72.67
2022-11-13T13:25:28.028Z,72.08
2022-11-13T13:28:18.246Z,72.28
2022-11-13T13:31:03.805Z,72.09
2022-11-13T13:33:51.828Z,72.07
2022-11-13T13:36:49.026Z,72.21
2022-11-13T13:39:52.758Z,72.58
2022-11-13T13:42:43.743Z,73.02
2022-11-13T13:45:37.356Z,73.74
2022-11-13T13:48:24.969Z,73.12
2022-11-13T13:51:17.613Z,72.93
2022-11-13T13:54:05.358Z,72.66
2022-11-13T13:56:50.844Z,72.11
2022-11-13T13:59:36.702Z,72.44
2022-11-13T14:02:23.411Z,72.18
2022-11-13T14:05:24.254Z,71.94
2022-11-13T14:08:19.526Z,71.82
2022-11-13T14:11:27.176Z,71.22
2022-11-13T14:14:16.986Z,70.93
2022-11-13T14:17:03.931Z,71.57
2022-11-13T14:19:52.843Z,71.49
2022-11-13T14:22:38.032Z,71.07
2022-11-13T14:25:26.326Z,71.63
2022-11-13T14:28:32.146Z,71.65
2022-11-13T14:31:17.599Z,71.99
2022-11-13T14:34:07.479Z,72.30
2022-11-13T14:36:52.938Z,72.58
2022-11-13T14:39:38.624Z,73.38
2022-11-13T14:42:36.777Z,73.68
2022-11-13T14:45:23.653Z,73.71
2022-11-13T14:48:19.585Z,73.98
2022-11-13T14:51:05.689Z,74.69
2022-11-13T14:54:17.450Z,75.00
2022-11-13T14:57:12.842Z,75.24
2022-11-13T14:59:58.021Z,75.15
2022-11-13T15:02:43.118Z,75.44
2022-11-13T15:05:28.304Z,75.64
2022-11-13T15:08:13.711Z,75.76
2022-11-13T15:10:59.159Z,76.22
2022-11-13T15:13:44.812Z,76.38
2022-11-13T15:16:31.396Z,76.31
2022-11-13T15:19:18.576Z,76.97
2022-11-13T15:25:19.589Z,76.98
2022-11-13T15:28:04.961Z,77.45
2022-11-13T15:30:49.978Z,77.47
2022-11-13T15:33:35.493Z,77.83
2022-11-13T15:36:20.490Z,78.02
2022-11-13T15:39:07.364Z,77.54
2022-11-13T15:41:54.142Z,77.88
2022-11-13T15:44:40.851Z,77.97
2022-11-13T15:47:26.577Z,77.94
2022-11-13T15:50:14.789Z,78.06
2022-11-13T15:53:05.064Z,78.32
2022-11-13T15:55:50.764Z,78.36
2022-11-13T15:58:35.849Z,78.73
2022-11-13T16:01:21.131Z,78.54
2022-11-13T16:04:06.723Z,78.56
2022-11-13T16:06:51.740Z,78.91
2022-11-13T16:09:37.308Z,79.16
2022-11-13T16:12:22.709Z,79.36
2022-11-13T16:15:07.990Z,79.10
2022-11-13T16:17:53.833Z,79.47
2022-11-13T16:20:39.362Z,79.39
2022-11-13T16:23:24.908Z,79.46
2022-11-13T16:26:17.728Z,79.72
2022-11-13T16:29:13.809Z,79.88
2022-11-13T16:31:59.296Z,79.58
2022-11-13T16:34:44.398Z,79.90
2022-11-13T16:37:29.630Z,80.12
2022-11-13T16:40:20.701Z,79.94
2022-11-13T16:43:06.382Z,79.88
2022-11-13T16:45:52.023Z,80.19
2022-11-13T16:48:37.158Z,79.84
2022-11-13T16:51:22.741Z,80.00
2022-11-13T16:54:07.659Z,80.09
2022-11-13T16:56:53.113Z,80.21
2022-11-13T16:59:38.454Z,80.14
2022-11-13T17:02:23.673Z,79.99
2022-11-13T17:05:13.014Z,79.96
2022-11-13T17:07:58.991Z,80.04
2022-11-13T17:10:44.719Z,80.07
2022-11-13T17:13:30.334Z,79.98
2022-11-13T17:16:15.877Z,79.71
2022-11-13T17:19:01.839Z,79.74
2022-11-13T17:21:47.093Z,79.71
2022-11-13T17:24:32.355Z,79.83
2022-11-13T17:27:17.593Z,79.61
2022-11-13T17:30:02.740Z,79.58
2022-11-13T17:32:47.795Z,79.92
2022-11-13T17:35:32.724Z,79.55
2022-11-13T17:38:17.971Z,79.83
2022-11-13T17:41:07.374Z,79.87
2022-11-13T17:43:55.658Z,80.07
2022-11-13T17:46:44.989Z,79.76
2022-11-13T17:49:30.184Z,79.55
2022-11-13T17:52:15.566Z,79.67
2022-11-13T17:55:01.299Z,79.63
2022-11-13T17:57:46.412Z,79.85
2022-11-13T18:00:31.702Z,79.76
2022-11-13T18:03:17.174Z,79.74
2022-11-13T18:06:09.655Z,79.77
2022-11-13T18:08:55.160Z,79.75
2022-11-13T18:11:40.654Z,79.56
2022-11-13T18:14:26.201Z,79.45
2022-11-13T18:17:11.415Z,79.42
2022-11-13T18:20:01.465Z,79.58
2022-11-13T18:22:47.500Z,79.32
2022-11-13T18:25:38.493Z,79.23
2022-11-13T18:28:24.919Z,79.48
2022-11-13T18:31:12.329Z,79.58
2022-11-13T18:33:58.689Z,79.13
2022-11-13T18:36:44.278Z,79.25
2022-11-13T18:39:29.456Z,79.12
2022-11-13T18:42:14.608Z,79.10
2022-11-13T18:45:05.475Z,79.23
2022-11-13T18:47:51.433Z,79.47
2022-11-13T18:50:38.564Z,79.29
2022-11-13T18:53:23.850Z,79.73
2022-11-13T18:56:10.860Z,79.75
2022-11-13T18:58:56.561Z,79.91
2022-11-13T19:01:42.405Z,80.01
2022-11-13T19:04:27.584Z,79.61
2022-11-13T19:07:13.275Z,80.03
2022-11-13T19:09:58.894Z,79.65
2022-11-13T19:12:44.083Z,80.09
2022-11-13T19:15:29.317Z,79.75
2022-11-13T19:18:14.651Z,79.71
2022-11-13T19:21:03.983Z,79.63
2022-11-13T19:23:49.265Z,79.72
2022-11-13T19:26:34.967Z,79.87
2022-11-13T19:29:20.575Z,79.78
2022-11-13T19:32:06.580Z,79.61
2022-11-13T19:34:52.041Z,79.65
2022-11-13T19:37:37.522Z,79.60
2022-11-13T19:40:23.110Z,79.88
2022-11-13T19:43:08.366Z,79.78
2022-11-13T19:45:53.865Z,79.95
2022-11-13T19:48:40.274Z,79.53
2022-11-13T19:51:26.434Z,79.66
2022-11-13T19:54:12.003Z,79.91
2022-11-13T19:57:00.311Z,79.92
2022-11-13T20:00:23.195Z,79.77
2022-11-13T20:07:09.769Z,79.67
2022-11-13T20:09:55.075Z,79.90
2022-11-13T20:12:41.774Z,79.56
2022-11-13T20:15:27.154Z,79.80
2022-11-13T20:18:14.275Z,79.41
2022-11-13T20:21:10.444Z,79.47
2022-11-13T20:24:02.423Z,79.74
2022-11-13T20:26:48.109Z,79.53
2022-11-13T20:29:33.152Z,79.40
2022-11-13T20:32:21.614Z,79.54
2022-11-13T20:35:07.998Z,79.70
2022-11-13T20:37:53.581Z,79.90
2022-11-13T20:40:38.859Z,79.57
2022-11-13T20:43:24.548Z,79.47
2022-11-13T20:46:12.533Z,79.47
2022-11-13T20:48:57.789Z,79.72
2022-11-13T20:51:51.472Z,79.82
2022-11-13T20:54:39.882Z,79.83
2022-11-13T20:57:25.052Z,79.71
2022-11-13T21:00:10.464Z,79.97
2022-11-13T21:02:59.207Z,79.68
2022-11-13T21:05:44.760Z,80.11
2022-11-13T21:08:30.469Z,79.79
2022-11-13T21:11:19.094Z,79.80
2022-11-13T21:14:04.411Z,79.80
2022-11-13T21:16:49.904Z,79.98
2022-11-13T21:19:35.426Z,79.93
2022-11-13T21:22:20.845Z,79.89
2022-11-13T21:25:08.175Z,79.87
2022-11-13T21:27:55.867Z,80.01
2022-11-13T21:30:41.834Z,79.87
2022-11-13T21:33:27.499Z,79.82
2022-11-13T21:36:14.132Z,80.01
2022-11-13T21:38:59.533Z,80.02
2022-11-13T21:41:45.273Z,80.28
2022-11-13T21:44:33.872Z,80.01
2022-11-13T21:47:18.977Z,79.99
2022-11-13T21:50:07.527Z,80.20
2022-11-13T21:52:52.701Z,80.10
2022-11-13T21:55:38.343Z,80.16
2022-11-13T21:58:33.895Z,80.00
2022-11-13T22:01:19.166Z,80.22
2022-11-13T22:04:04.863Z,80.10
2022-11-13T22:06:50.710Z,80.14
2022-11-13T22:09:38.301Z,79.79
2022-11-13T22:12:23.832Z,80.05
2022-11-13T22:15:10.163Z,79.97
2022-11-13T22:17:55.416Z,80.29
2022-11-13T22:20:41.940Z,80.18
2022-11-13T22:23:27.569Z,79.78
2022-11-13T22:26:13.863Z,80.09
2022-11-13T22:28:59.816Z,80.01
2022-11-13T22:31:45.220Z,79.89
2022-11-13T22:34:30.777Z,80.06
2022-11-13T22:37:16.309Z,79.90
2022-11-13T22:40:01.924Z,80.22
2022-11-13T22:42:47.843Z,80.26
2022-11-13T22:45:33.604Z,80.21
2022-11-13T22:48:22.887Z,80.59
2022-11-13T22:51:10.021Z,80.23
2022-11-13T22:53:59.447Z,80.28
2022-11-13T22:56:47.189Z,80.35
2022-11-13T22:59:39.905Z,80.26
2022-11-13T23:02:30.471Z,80.44
2022-11-13T23:08:15.587Z,80.50
2022-11-13T23:11:01.255Z,80.70
2022-11-13T23:13:47.796Z,80.43
2022-11-13T23:16:33.937Z,80.63
2022-11-13T23:19:19.394Z,80.78
2022-11-13T23:22:05.200Z,81.08
2022-11-13T23:24:50.892Z,81.07
2022-11-13T23:27:36.475Z,81.12
2022-11-13T23:30:22.157Z,80.99
2022-11-13T23:33:14.125Z,81.02
2022-11-13T23:36:14.933Z,81.12
2022-11-13T23:39:01.028Z,80.83
2022-11-13T23:41:48.813Z,81.09
2022-11-13T23:44:40.426Z,81.10
2022-11-13T23:47:31.399Z,80.86
2022-11-13T23:50:16.825Z,81.00
2022-11-13T23:53:08.149Z,81.19
2022-11-13T23:56:00.845Z,81.27
2022-11-13T23:58:46.648Z,81.22
